Time;durP1;ratioP1;P1;durP2;ratioP2;P2;SDS_P1;SDS_P2;PMS_P1;PMS_P2;Temp;Humidity;BMP_temperature;BMP_pressure;BME280_temperature;BME280_humidity;BME280_pressure;Samples;Min_cycle;Max_cycle;Signal;HPM_P1;HPM_P2
2022/01/22 00:02:08;;;;;;;8.30;5.53;;;;;;;;;;5046672;28;20179;-77
2022/01/22 00:04:34;;;;;;;8.17;4.40;;;;;;;;;;5012056;28;20279;-77
2022/01/22 00:07:02;;;;;;;7.20;6.10;;;;;;;;;;5016719;28;20178;-77
2022/01/22 00:09:28;;;;;;;8.20;6.63;;;;;;;;;;5012754;28;20182;-77
2022/01/22 00:11:54;;;;;;;10.53;7.03;;;;;;;;;;5013096;28;20187;-77
2022/01/22 00:14:23;;;;;;;12.53;7.47;;;;;;;;;;5045360;28;20184;-77
2022/01/22 00:16:48;;;;;;;10.23;6.83;;;;;;;;;;5012152;28;20253;-77
2022/01/22 00:19:14;;;;;;;9.60;6.80;;;;;;;;;;5012990;28;20183;-76
2022/01/22 00:21:39;;;;;;;9.63;6.57;;;;;;;;;;5042490;28;20188;-77
2022/01/22 00:24:06;;;;;;;10.17;7.27;;;;;;;;;;5014084;28;20233;-77
2022/01/22 00:26:32;;;;;;;8.10;6.30;;;;;;;;;;5010501;28;20188;-77
2022/01/22 00:28:57;;;;;;;9.23;5.90;;;;;;;;;;5009483;28;20183;-77
2022/01/22 00:31:22;;;;;;;11.73;7.60;;;;;;;;;;5012271;28;20196;-77
2022/01/22 00:33:47;;;;;;;6.97;5.10;;;;;;;;;;5044817;28;20196;-77
2022/01/22 00:36:12;;;;;;;10.40;6.73;;;;;;;;;;5018256;28;20210;-77
2022/01/22 00:38:38;;;;;;;11.13;6.70;;;;;;;;;;5011178;28;25205;-77
2022/01/22 00:41:03;;;;;;;10.17;7.30;;;;;;;;;;5011753;28;20187;-77
2022/01/22 00:43:28;;;;;;;15.63;7.80;;;;;;;;;;5013538;28;20179;-77
2022/01/22 00:45:53;;;;;;;15.77;8.27;;;;;;;;;;5012694;28;20182;-77
2022/01/22 00:48:19;;;;;;;10.97;7.40;;;;;;;;;;5013132;28;20193;-77
2022/01/22 00:50:44;;;;;;;11.37;7.13;;;;;;;;;;5012408;28;20192;-77
2022/01/22 00:53:09;;;;;;;11.43;7.80;;;;;;;;;;5012560;28;20266;-77
2022/01/22 00:55:34;;;;;;;10.97;6.77;;;;;;;;;;5017045;28;20305;-77
2022/01/22 00:58:00;;;;;;;16.90;8.20;;;;;;;;;;5012367;28;20214;-77
2022/01/22 01:00:28;;;;;;;10.47;7.07;;;;;;;;;;5011730;28;20182;-77
2022/01/22 01:02:53;;;;;;;12.47;7.73;;;;;;;;;;5012109;28;20170;-77
2022/01/22 01:05:18;;;;;;;12.10;7.47;;;;;;;;;;5048368;28;20183;-77
2022/01/22 01:07:44;;;;;;;12.73;9.50;;;;;;;;;;5015754;28;20182;-77
2022/01/22 01:10:12;;;;;;;14.03;8.73;;;;;;;;;;5051266;28;20189;-77
2022/01/22 01:12:39;;;;;;;14.73;11.10;;;;;;;;;;5021012;28;20187;-77
2022/01/22 01:15:18;;;;;;;12.80;8.43;;;;;;;;;;5013778;28;20203;-77
2022/01/22 01:34:17;;;;;;;13.00;8.63;;;;;;;;;;5033353;28;20324;-77
2022/01/22 01:36:43;;;;;;;16.50;9.83;;;;;;;;;;5010614;28;20257;-77
2022/01/22 01:39:12;;;;;;;25.40;10.60;;;;;;;;;;5017038;28;20227;-77
2022/01/22 01:41:50;;;;;;;19.60;9.60;;;;;;;;;;5033732;28;20194;-77
2022/01/22 01:44:16;;;;;;;14.87;8.53;;;;;;;;;;5016917;28;20180;-77
2022/01/22 01:46:42;;;;;;;18.77;11.10;;;;;;;;;;5033354;28;20171;-77
2022/01/22 01:49:07;;;;;;;15.73;8.77;;;;;;;;;;5020438;28;20250;-77
2022/01/22 01:51:34;;;;;;;39.70;13.03;;;;;;;;;;5014007;28;20207;-77
2022/01/22 01:54:13;;;;;;;27.97;11.00;;;;;;;;;;5014697;28;20234;-77
2022/01/22 01:59:22;;;;;;;34.73;11.60;;;;;;;;;;5028456;28;20194;-77
2022/01/22 02:01:47;;;;;;;30.60;10.73;;;;;;;;;;5019619;28;20176;-77
2022/01/22 02:04:13;;;;;;;24.00;11.63;;;;;;;;;;5014286;28;20277;-77
2022/01/22 02:06:39;;;;;;;23.87;10.87;;;;;;;;;;5015211;28;20185;-77
2022/01/22 02:09:09;;;;;;;24.97;11.13;;;;;;;;;;5008363;28;20184;-77
2022/01/22 02:11:39;;;;;;;39.13;11.13;;;;;;;;;;5019294;28;20175;-77
2022/01/22 02:23:28;;;;;;;29.77;9.73;;;;;;;;;;5014842;28;20202;-77
2022/01/22 02:25:03;;;;;;;32.47;11.57;;;;;;;;;;5006042;28;20287;-77
2022/01/22 02:27:28;;;;;;;45.73;11.30;;;;;;;;;;4986241;28;20175;-77
2022/01/22 02:29:54;;;;;;;20.83;9.60;;;;;;;;;;4993586;28;20203;-77
2022/01/22 02:35:07;;;;;;;31.33;11.00;;;;;;;;;;5014904;28;20208;-77
2022/01/22 02:37:36;;;;;;;53.70;16.70;;;;;;;;;;5008820;28;20261;-77
2022/01/22 02:40:10;;;;;;;46.63;11.90;;;;;;;;;;4989521;28;20190;-77
2022/01/22 02:42:36;;;;;;;21.10;11.27;;;;;;;;;;5007124;28;20388;-77
2022/01/22 02:45:09;;;;;;;27.47;12.73;;;;;;;;;;5006803;28;20317;-77
2022/01/22 02:47:34;;;;;;;25.87;12.27;;;;;;;;;;4991041;28;20176;-77
2022/01/22 02:49:59;;;;;;;32.37;12.00;;;;;;;;;;4985195;28;20181;-77
2022/01/22 02:52:24;;;;;;;25.27;11.57;;;;;;;;;;4993785;28;20259;-77
2022/01/22 02:54:50;;;;;;;16.40;9.00;;;;;;;;;;5016949;28;20205;-77
2022/01/22 02:57:15;;;;;;;23.30;11.93;;;;;;;;;;5012924;28;20211;-77
2022/01/22 02:59:41;;;;;;;16.07;10.47;;;;;;;;;;4981515;28;20463;-77
2022/01/22 03:02:06;;;;;;;17.43;10.17;;;;;;;;;;4989425;28;20183;-77
2022/01/22 03:04:31;;;;;;;20.20;11.43;;;;;;;;;;4994239;28;20178;-77
2022/01/22 03:06:56;;;;;;;16.17;7.60;;;;;;;;;;4987811;28;20212;-77
2022/01/22 03:09:28;;;;;;;15.23;9.40;;;;;;;;;;4993121;28;20175;-77
2022/01/22 03:17:30;;;;;;;20.33;10.87;;;;;;;;;;5022433;28;20257;-77
2022/01/22 03:22:53;;;;;;;18.27;10.33;;;;;;;;;;5027218;28;20404;-77
2022/01/22 03:27:59;;;;;;;23.70;13.03;;;;;;;;;;5033122;28;20186;-77
2022/01/22 03:30:24;;;;;;;21.53;11.33;;;;;;;;;;5015114;28;20200;-77
2022/01/22 03:32:52;;;;;;;13.30;7.57;;;;;;;;;;5013104;28;20210;-77
2022/01/22 03:37:44;;;;;;;22.03;11.50;;;;;;;;;;5030848;28;20178;-77
2022/01/22 03:40:10;;;;;;;20.63;10.87;;;;;;;;;;5017773;28;20180;-77
2022/01/22 03:42:35;;;;;;;23.20;11.70;;;;;;;;;;5012653;28;20170;-77
2022/01/22 03:45:05;;;;;;;15.83;10.60;;;;;;;;;;5011575;28;20179;-77
2022/01/22 03:47:30;;;;;;;19.47;10.60;;;;;;;;;;5015305;28;20178;-77
2022/01/22 03:49:55;;;;;;;17.07;10.87;;;;;;;;;;5008635;28;20179;-77
2022/01/22 03:52:21;;;;;;;24.17;13.10;;;;;;;;;;5008193;28;20182;-77
2022/01/22 03:54:46;;;;;;;18.67;9.97;;;;;;;;;;5012497;28;20685;-77
2022/01/22 03:57:11;;;;;;;19.13;10.93;;;;;;;;;;5039029;28;20179;-77
2022/01/22 03:59:36;;;;;;;21.93;11.27;;;;;;;;;;5011839;28;20214;-77
2022/01/22 04:04:57;;;;;;;24.23;12.10;;;;;;;;;;4992880;28;20214;-77
2022/01/22 04:10:00;;;;;;;25.53;12.33;;;;;;;;;;5021138;28;20179;-77
2022/01/22 04:13:02;;;;;;;16.40;10.03;;;;;;;;;;5014287;28;20187;-77
2022/01/22 04:15:20;;;;;;;20.47;10.93;;;;;;;;;;5024586;28;20218;-77
2022/01/22 04:26:19;;;;;;;17.70;11.30;;;;;;;;;;4996172;28;20233;-77
2022/01/22 04:28:42;;;;;;;18.63;11.63;;;;;;;;;;5022233;28;20179;-77
2022/01/22 04:31:08;;;;;;;19.30;11.33;;;;;;;;;;5028821;28;20186;-77
2022/01/22 04:33:33;;;;;;;18.43;10.30;;;;;;;;;;5009094;28;20199;-77
2022/01/22 04:35:58;;;;;;;17.87;9.77;;;;;;;;;;5010720;28;20204;-77
2022/01/22 04:38:23;;;;;;;16.50;10.07;;;;;;;;;;4999720;28;20194;-77
2022/01/22 04:40:49;;;;;;;18.10;10.17;;;;;;;;;;5020970;28;20242;-77
2022/01/22 04:43:14;;;;;;;28.43;12.03;;;;;;;;;;5026372;28;20182;-77
2022/01/22 04:45:50;;;;;;;12.30;7.67;;;;;;;;;;5010847;28;20242;-77
2022/01/22 04:48:42;;;;;;;14.60;10.17;;;;;;;;;;5026661;28;20197;-77
2022/01/22 04:56:46;;;;;;;21.83;10.37;;;;;;;;;;4997976;28;20299;-77
2022/01/22 04:59:12;;;;;;;19.33;12.70;;;;;;;;;;5032351;28;20272;-77
2022/01/22 05:01:37;;;;;;;16.67;9.00;;;;;;;;;;5021743;28;20201;-77
2022/01/22 05:04:02;;;;;;;14.17;9.20;;;;;;;;;;5011575;28;20278;-77
2022/01/22 05:06:29;;;;;;;14.10;10.60;;;;;;;;;;5008168;28;20186;-77
2022/01/22 05:08:55;;;;;;;16.73;11.27;;;;;;;;;;5034031;28;20196;-77
2022/01/22 05:11:20;;;;;;;26.33;10.50;;;;;;;;;;5013468;28;20179;-77
2022/01/22 05:13:46;;;;;;;17.67;12.00;;;;;;;;;;5025323;28;20211;-77
2022/01/22 05:16:11;;;;;;;18.13;12.33;;;;;;;;;;5005362;28;20595;-77
2022/01/22 05:18:43;;;;;;;19.00;10.87;;;;;;;;;;5047183;28;20293;-77
2022/01/22 05:21:13;;;;;;;26.03;12.47;;;;;;;;;;5016358;28;20182;-77
2022/01/22 05:23:40;;;;;;;18.03;12.20;;;;;;;;;;5014665;28;20171;-77
2022/01/22 05:26:10;;;;;;;18.13;12.83;;;;;;;;;;5014892;28;20223;-77
2022/01/22 05:31:41;;;;;;;19.27;12.00;;;;;;;;;;5029830;28;20260;-77
2022/01/22 05:37:05;;;;;;;19.83;11.67;;;;;;;;;;5037233;28;22060;-77
2022/01/22 05:39:31;;;;;;;19.00;11.17;;;;;;;;;;5014483;28;20181;-77
2022/01/22 05:41:58;;;;;;;16.07;10.53;;;;;;;;;;5015234;28;20179;-77
2022/01/22 05:44:23;;;;;;;18.87;12.57;;;;;;;;;;5032184;28;20229;-77
2022/01/22 05:46:50;;;;;;;17.07;11.80;;;;;;;;;;5015930;28;20222;-77
2022/01/22 05:49:16;;;;;;;22.53;14.23;;;;;;;;;;5016180;28;20265;-77
2022/01/22 05:51:44;;;;;;;16.60;10.73;;;;;;;;;;5037312;28;20234;-77
2022/01/22 05:59:39;;;;;;;21.37;11.80;;;;;;;;;;5033072;28;20181;-77
2022/01/22 06:02:08;;;;;;;20.33;11.57;;;;;;;;;;5011913;28;20182;-77
2022/01/22 06:04:34;;;;;;;18.63;11.97;;;;;;;;;;5022417;28;20248;-77
2022/01/22 06:06:59;;;;;;;16.73;11.90;;;;;;;;;;5013323;28;20187;-77
2022/01/22 06:09:25;;;;;;;22.93;11.50;;;;;;;;;;5011948;28;20187;-77
2022/01/22 06:11:58;;;;;;;16.10;11.07;;;;;;;;;;5014838;28;20179;-76
2022/01/22 06:14:23;;;;;;;16.97;10.60;;;;;;;;;;5013442;28;20181;-77
2022/01/22 06:16:48;;;;;;;16.70;9.80;;;;;;;;;;5015238;28;20241;-77
2022/01/22 06:19:13;;;;;;;17.33;10.60;;;;;;;;;;5021287;28;20193;-77
2022/01/22 06:21:39;;;;;;;19.40;11.57;;;;;;;;;;5020406;28;20215;-77
2022/01/22 06:24:05;;;;;;;18.43;10.03;;;;;;;;;;5015745;28;20192;-77
2022/01/22 06:26:32;;;;;;;16.77;10.40;;;;;;;;;;5010175;28;20178;-77
2022/01/22 06:28:58;;;;;;;19.87;11.17;;;;;;;;;;5019228;28;20205;-77
2022/01/22 06:31:24;;;;;;;20.43;12.13;;;;;;;;;;5031995;28;20179;-77
2022/01/22 06:33:49;;;;;;;17.30;9.83;;;;;;;;;;5017251;28;20281;-77
2022/01/22 06:36:14;;;;;;;20.87;12.83;;;;;;;;;;5047437;28;20210;-77
2022/01/22 06:38:40;;;;;;;18.77;12.33;;;;;;;;;;5012997;28;20178;-77
2022/01/22 06:43:49;;;;;;;17.20;11.13;;;;;;;;;;5027819;28;20174;-77
2022/01/22 06:46:14;;;;;;;21.83;12.00;;;;;;;;;;5014321;28;20182;-77
2022/01/22 06:48:39;;;;;;;18.70;10.57;;;;;;;;;;5014184;28;20185;-77
2022/01/22 06:51:05;;;;;;;18.90;11.57;;;;;;;;;;5014536;28;20241;-77
2022/01/22 06:53:35;;;;;;;21.97;13.37;;;;;;;;;;5017426;28;20181;-77
2022/01/22 06:56:02;;;;;;;23.47;13.53;;;;;;;;;;5015951;28;21060;-77
2022/01/22 06:58:28;;;;;;;21.97;12.47;;;;;;;;;;5029133;28;20344;-77
2022/01/22 07:00:53;;;;;;;24.30;13.90;;;;;;;;;;5012061;28;20175;-77
2022/01/22 07:03:19;;;;;;;30.73;17.37;;;;;;;;;;5019904;28;20379;-77
2022/01/22 07:05:45;;;;;;;50.33;30.53;;;;;;;;;;5016918;28;20241;-77
2022/01/22 07:08:10;;;;;;;28.30;20.70;;;;;;;;;;5011096;28;20225;-77
2022/01/22 07:10:35;;;;;;;30.40;19.67;;;;;;;;;;5014062;28;20189;-77
2022/01/22 07:13:00;;;;;;;26.83;17.37;;;;;;;;;;5030847;28;20384;-77
2022/01/22 07:15:26;;;;;;;28.03;16.33;;;;;;;;;;5012694;28;20258;-77
2022/01/22 07:17:51;;;;;;;25.40;18.07;;;;;;;;;;5013929;28;20214;-76
2022/01/22 07:20:25;;;;;;;24.80;16.43;;;;;;;;;;5013627;28;20178;-77
2022/01/22 07:22:51;;;;;;;23.37;16.33;;;;;;;;;;5015055;28;20208;-77
2022/01/22 07:25:17;;;;;;;18.87;12.83;;;;;;;;;;5046412;28;20195;-77
2022/01/22 07:27:42;;;;;;;24.80;16.20;;;;;;;;;;5013549;28;20194;-77
2022/01/22 07:30:07;;;;;;;25.70;15.77;;;;;;;;;;5016857;28;20199;-77
2022/01/22 07:32:36;;;;;;;26.00;17.33;;;;;;;;;;5008165;28;20189;-77
2022/01/22 07:35:03;;;;;;;32.40;18.30;;;;;;;;;;5014564;28;20208;-77
2022/01/22 07:37:28;;;;;;;22.17;14.07;;;;;;;;;;5015546;28;20238;-77
2022/01/22 07:39:53;;;;;;;20.07;14.07;;;;;;;;;;5027181;28;20305;-77
2022/01/22 07:42:18;;;;;;;20.97;14.73;;;;;;;;;;5024473;28;20273;-77
2022/01/22 07:44:44;;;;;;;21.87;13.93;;;;;;;;;;5013943;28;20305;-77
2022/01/22 07:47:09;;;;;;;28.03;15.97;;;;;;;;;;5012678;28;20212;-77
2022/01/22 07:49:34;;;;;;;23.67;14.40;;;;;;;;;;5016125;28;20177;-77
2022/01/22 07:51:59;;;;;;;23.23;14.30;;;;;;;;;;5011102;28;20258;-77
2022/01/22 07:54:25;;;;;;;25.23;14.80;;;;;;;;;;5010873;28;20270;-77
2022/01/22 07:56:50;;;;;;;20.23;12.43;;;;;;;;;;5014699;28;20351;-77
2022/01/22 07:59:15;;;;;;;26.03;16.90;;;;;;;;;;5010902;28;20232;-77
2022/01/22 08:01:40;;;;;;;22.10;15.03;;;;;;;;;;5014665;28;20200;-77
2022/01/22 08:04:05;;;;;;;23.03;14.60;;;;;;;;;;5014558;28;20213;-77
2022/01/22 08:06:31;;;;;;;25.80;14.87;;;;;;;;;;5032742;28;20174;-77
2022/01/22 08:08:56;;;;;;;21.87;14.17;;;;;;;;;;5013669;28;20174;-77
2022/01/22 08:11:21;;;;;;;23.33;14.63;;;;;;;;;;5014210;28;20225;-77
2022/01/22 08:13:46;;;;;;;25.70;15.17;;;;;;;;;;5015154;28;20174;-77
2022/01/22 08:16:11;;;;;;;26.23;14.60;;;;;;;;;;5018185;28;20269;-77
2022/01/22 08:18:37;;;;;;;21.93;13.87;;;;;;;;;;5016947;28;20278;-77
2022/01/22 08:21:02;;;;;;;21.10;14.40;;;;;;;;;;5026942;28;20185;-77
2022/01/22 08:23:27;;;;;;;23.40;14.33;;;;;;;;;;5016550;28;20202;-77
2022/01/22 08:25:53;;;;;;;19.63;14.10;;;;;;;;;;5022754;28;20184;-77
2022/01/22 08:31:06;;;;;;;25.40;13.47;;;;;;;;;;5029692;28;20190;-77
2022/01/22 08:35:52;;;;;;;22.40;12.53;;;;;;;;;;5011950;28;20237;-77
2022/01/22 08:36:16;;;;;;;19.30;11.23;;;;;;;;;;5033683;28;20241;-77
2022/01/22 08:38:41;;;;;;;21.00;11.97;;;;;;;;;;5016627;28;20193;-77
2022/01/22 08:41:06;;;;;;;19.70;12.53;;;;;;;;;;5010737;28;20193;-77
2022/01/22 08:43:32;;;;;;;23.90;14.57;;;;;;;;;;5007871;28;20181;-77
2022/01/22 08:45:57;;;;;;;23.00;14.10;;;;;;;;;;5039490;28;20183;-77
2022/01/22 08:48:23;;;;;;;24.40;12.50;;;;;;;;;;5014650;28;20228;-77
2022/01/22 08:50:48;;;;;;;22.07;12.17;;;;;;;;;;5014276;28;20208;-76
2022/01/22 08:53:13;;;;;;;24.07;13.20;;;;;;;;;;5009081;28;20310;-77
2022/01/22 08:55:39;;;;;;;17.73;11.23;;;;;;;;;;5013159;28;20213;-77
2022/01/22 08:58:04;;;;;;;19.67;11.73;;;;;;;;;;5011128;28;20171;-77
2022/01/22 09:00:29;;;;;;;17.07;9.93;;;;;;;;;;5014742;28;20175;-77
2022/01/22 09:02:56;;;;;;;17.63;12.03;;;;;;;;;;5016715;28;20229;-77
2022/01/22 09:05:25;;;;;;;19.43;12.80;;;;;;;;;;5004922;28;20185;-76
2022/01/22 09:07:51;;;;;;;23.33;13.57;;;;;;;;;;5016414;28;20179;-77
2022/01/22 09:10:16;;;;;;;23.27;15.90;;;;;;;;;;5008670;28;20222;-77
2022/01/22 09:12:42;;;;;;;20.87;12.33;;;;;;;;;;5017565;28;20202;-77
2022/01/22 09:15:07;;;;;;;19.83;13.20;;;;;;;;;;5018863;28;20213;-76
2022/01/22 09:17:32;;;;;;;23.43;14.60;;;;;;;;;;5016391;28;20254;-77
2022/01/22 09:19:58;;;;;;;21.07;13.43;;;;;;;;;;5026601;28;20299;-77
2022/01/22 09:22:24;;;;;;;18.03;12.37;;;;;;;;;;5010475;28;20190;-77
2022/01/22 09:24:50;;;;;;;18.67;11.50;;;;;;;;;;5014512;28;20186;-77
2022/01/22 09:27:16;;;;;;;21.57;13.27;;;;;;;;;;5022598;28;20234;-77
2022/01/22 09:29:42;;;;;;;20.80;13.03;;;;;;;;;;5012834;28;20179;-77
2022/01/22 09:32:07;;;;;;;16.53;12.03;;;;;;;;;;5012137;28;20183;-77
2022/01/22 09:34:32;;;;;;;17.67;11.97;;;;;;;;;;5014605;28;20202;-77
2022/01/22 09:36:57;;;;;;;18.10;11.70;;;;;;;;;;5014606;28;20182;-76
2022/01/22 09:39:23;;;;;;;16.57;11.40;;;;;;;;;;5035430;28;20197;-77
2022/01/22 09:41:48;;;;;;;22.07;12.90;;;;;;;;;;5017209;28;20178;-76
2022/01/22 09:44:13;;;;;;;19.40;13.83;;;;;;;;;;5014916;28;20182;-77
2022/01/22 09:46:40;;;;;;;20.13;13.37;;;;;;;;;;5033501;28;20172;-77
2022/01/22 09:49:05;;;;;;;21.20;12.40;;;;;;;;;;5013859;28;20254;-77
2022/01/22 09:51:31;;;;;;;17.53;13.17;;;;;;;;;;5016246;28;20171;-76
2022/01/22 09:53:56;;;;;;;20.40;11.10;;;;;;;;;;5017374;28;20199;-77
2022/01/22 09:56:23;;;;;;;20.63;13.13;;;;;;;;;;5021963;28;20202;-77
2022/01/22 09:58:48;;;;;;;34.57;21.37;;;;;;;;;;5028273;28;20174;-76
2022/01/22 10:01:27;;;;;;;18.97;12.17;;;;;;;;;;5015316;28;20175;-77
2022/01/22 10:03:54;;;;;;;19.87;12.77;;;;;;;;;;5042726;28;20174;-77
2022/01/22 10:06:21;;;;;;;15.20;11.50;;;;;;;;;;5014875;28;20193;-77
2022/01/22 10:08:47;;;;;;;18.63;9.70;;;;;;;;;;5021058;28;20179;-77
2022/01/22 10:11:17;;;;;;;17.00;11.47;;;;;;;;;;5035632;28;20175;-77
2022/01/22 10:13:43;;;;;;;17.27;11.97;;;;;;;;;;5026473;28;20179;-77
2022/01/22 10:16:09;;;;;;;14.47;10.03;;;;;;;;;;5015787;28;20246;-77
2022/01/22 10:18:34;;;;;;;11.70;9.13;;;;;;;;;;4999943;28;20174;-77
2022/01/22 10:21:06;;;;;;;14.83;10.37;;;;;;;;;;5027578;28;20179;-77
2022/01/22 10:23:37;;;;;;;13.73;9.83;;;;;;;;;;4997326;28;20171;-77
2022/01/22 10:26:04;;;;;;;18.10;9.87;;;;;;;;;;5029670;28;20183;-77
2022/01/22 10:28:37;;;;;;;14.67;9.97;;;;;;;;;;4997576;28;20171;-76
2022/01/22 10:31:09;;;;;;;13.13;9.33;;;;;;;;;;4994217;28;20193;-77
2022/01/22 10:33:35;;;;;;;14.60;10.60;;;;;;;;;;5027411;28;20246;-76
2022/01/22 10:36:08;;;;;;;13.43;9.73;;;;;;;;;;4995938;28;20208;-76
2022/01/22 10:38:40;;;;;;;15.60;9.87;;;;;;;;;;4995976;28;20254;-77
2022/01/22 10:41:07;;;;;;;15.83;11.67;;;;;;;;;;5008329;28;20240;-76
2022/01/22 10:43:33;;;;;;;17.23;11.10;;;;;;;;;;4995338;28;20266;-76
2022/01/22 10:46:08;;;;;;;12.27;8.23;;;;;;;;;;5015200;28;20219;-76
2022/01/22 10:48:34;;;;;;;14.20;9.13;;;;;;;;;;5012210;28;20403;-77
2022/01/22 10:51:00;;;;;;;9.87;7.60;;;;;;;;;;5008602;28;20175;-76
2022/01/22 10:53:36;;;;;;;12.47;9.13;;;;;;;;;;4993269;28;20199;-76
2022/01/22 10:56:03;;;;;;;13.10;9.10;;;;;;;;;;4992613;28;20206;-76
2022/01/22 10:58:28;;;;;;;14.73;9.30;;;;;;;;;;4993323;28;20225;-76
2022/01/22 11:00:57;;;;;;;15.13;10.63;;;;;;;;;;4993730;28;20180;-76
2022/01/22 11:03:23;;;;;;;15.73;9.70;;;;;;;;;;4993081;28;20176;-76
2022/01/22 11:05:48;;;;;;;11.30;8.97;;;;;;;;;;4994636;28;20182;-76
2022/01/22 11:08:14;;;;;;;15.73;10.30;;;;;;;;;;4999572;28;20202;-76
2022/01/22 11:10:40;;;;;;;15.63;11.00;;;;;;;;;;4993223;28;20263;-77
2022/01/22 11:13:05;;;;;;;12.37;8.50;;;;;;;;;;5000027;28;20178;-76
2022/01/22 11:15:31;;;;;;;10.77;8.13;;;;;;;;;;4994228;28;20210;-76
2022/01/22 11:17:58;;;;;;;13.57;7.97;;;;;;;;;;5014593;28;20213;-76
2022/01/22 11:20:24;;;;;;;11.43;7.77;;;;;;;;;;5043694;28;20266;-76
2022/01/22 11:22:50;;;;;;;14.43;8.80;;;;;;;;;;5015218;28;20265;-77
2022/01/22 11:25:15;;;;;;;12.93;7.73;;;;;;;;;;5056780;28;20309;-78
2022/01/22 11:27:41;;;;;;;11.60;7.80;;;;;;;;;;5014448;28;20264;-77
2022/01/22 11:30:07;;;;;;;12.13;8.10;;;;;;;;;;5014326;28;20424;-77
2022/01/22 11:32:53;;;;;;;13.93;8.43;;;;;;;;;;5021707;28;20183;-77
2022/01/22 11:35:21;;;;;;;13.60;10.00;;;;;;;;;;5022537;28;20298;-76
2022/01/22 11:37:48;;;;;;;13.03;8.30;;;;;;;;;;5023378;28;20182;-77
2022/01/22 11:40:23;;;;;;;12.23;8.70;;;;;;;;;;5021217;28;20177;-77
2022/01/22 11:42:56;;;;;;;12.07;8.03;;;;;;;;;;5017369;28;20182;-76
2022/01/22 11:45:33;;;;;;;12.00;8.00;;;;;;;;;;5021532;28;20205;-76
2022/01/22 11:48:14;;;;;;;12.03;8.00;;;;;;;;;;5012927;28;20167;-76
2022/01/22 11:50:40;;;;;;;12.27;8.70;;;;;;;;;;5011359;28;20250;-76
2022/01/22 11:53:20;;;;;;;11.10;7.77;;;;;;;;;;5008135;28;20183;-76
2022/01/22 11:56:04;;;;;;;11.33;8.53;;;;;;;;;;5018252;28;20284;-77
2022/01/22 11:58:29;;;;;;;13.13;6.70;;;;;;;;;;5030659;28;20190;-76
2022/01/22 12:00:55;;;;;;;9.43;6.73;;;;;;;;;;5017507;28;20171;-76
2022/01/22 12:03:20;;;;;;;27.97;16.83;;;;;;;;;;5017442;28;20178;-76
2022/01/22 12:05:54;;;;;;;8.77;6.37;;;;;;;;;;5019571;28;20232;-76
2022/01/22 12:08:20;;;;;;;13.63;8.90;;;;;;;;;;5009775;28;20179;-76
2022/01/22 12:16:45;;;;;;;13.37;8.40;;;;;;;;;;5032057;28;20249;-76
2022/01/22 12:20:29;;;;;;;14.37;9.87;;;;;;;;;;5024511;28;20213;-76
2022/01/22 12:22:37;;;;;;;12.90;8.60;;;;;;;;;;4969746;28;20188;-76
2022/01/22 12:25:08;;;;;;;11.80;8.73;;;;;;;;;;4948842;28;20188;-76
2022/01/22 12:28:02;;;;;;;11.57;8.77;;;;;;;;;;4970259;28;20270;-76
2022/01/22 12:30:36;;;;;;;13.77;9.20;;;;;;;;;;4954282;28;20192;-76
2022/01/22 12:33:02;;;;;;;14.57;9.20;;;;;;;;;;4966864;28;20303;-76
2022/01/22 12:35:34;;;;;;;13.37;9.17;;;;;;;;;;4949842;28;20291;-76
2022/01/22 12:38:17;;;;;;;16.00;9.93;;;;;;;;;;4949443;28;20181;-76
2022/01/22 12:40:43;;;;;;;16.33;10.40;;;;;;;;;;4955156;28;20287;-76
2022/01/22 12:43:12;;;;;;;13.27;10.53;;;;;;;;;;4972434;28;20284;-76
2022/01/22 12:45:39;;;;;;;11.40;8.00;;;;;;;;;;4968546;28;20255;-76
2022/01/22 12:48:04;;;;;;;14.50;10.27;;;;;;;;;;4951915;28;20177;-76
2022/01/22 12:50:31;;;;;;;15.23;11.30;;;;;;;;;;4963342;28;20253;-75
2022/01/22 12:53:02;;;;;;;8.90;7.40;;;;;;;;;;4981019;28;20190;-76
2022/01/22 12:55:48;;;;;;;17.83;13.13;;;;;;;;;;5016994;28;20516;-76
2022/01/22 12:58:23;;;;;;;12.60;10.67;;;;;;;;;;5026078;28;20182;-76
2022/01/22 13:00:51;;;;;;;14.87;11.97;;;;;;;;;;5031952;28;20174;-76
2022/01/22 13:03:30;;;;;;;16.27;12.37;;;;;;;;;;5021037;28;21145;-76
2022/01/22 13:05:55;;;;;;;12.30;9.10;;;;;;;;;;5038857;28;20213;-76
2022/01/22 13:08:29;;;;;;;11.43;8.23;;;;;;;;;;5037801;28;20210;-75
2022/01/22 13:10:56;;;;;;;15.63;10.63;;;;;;;;;;5037372;28;20216;-76
2022/01/22 13:13:21;;;;;;;15.67;9.90;;;;;;;;;;5013404;28;20194;-76
2022/01/22 13:15:46;;;;;;;15.27;9.77;;;;;;;;;;5019028;28;20206;-76
2022/01/22 13:18:11;;;;;;;15.10;9.83;;;;;;;;;;5021911;28;20178;-76
2022/01/22 13:20:37;;;;;;;12.13;8.27;;;;;;;;;;5011397;28;20175;-76
2022/01/22 13:23:18;;;;;;;16.23;10.37;;;;;;;;;;5017139;28;20265;-76
2022/01/22 13:25:44;;;;;;;14.07;9.67;;;;;;;;;;5013144;28;20179;-77
2022/01/22 13:28:15;;;;;;;14.77;9.57;;;;;;;;;;5049904;28;20194;-76
2022/01/22 13:30:51;;;;;;;16.13;9.73;;;;;;;;;;5030066;28;20179;-75
2022/01/22 13:33:21;;;;;;;12.97;10.63;;;;;;;;;;5027266;28;20202;-75
2022/01/22 13:36:12;;;;;;;12.50;9.40;;;;;;;;;;5030068;28;20195;-75
2022/01/22 13:49:36;;;;;;;13.13;8.80;;;;;;;;;;5030786;28;20190;-75
2022/01/22 13:52:08;;;;;;;21.17;13.07;;;;;;;;;;5016912;28;20274;-75
2022/01/22 13:54:38;;;;;;;12.10;8.60;;;;;;;;;;5030040;28;20184;-75
2022/01/22 13:57:11;;;;;;;16.67;11.33;;;;;;;;;;5022683;28;20215;-76
2022/01/22 13:59:41;;;;;;;16.40;11.43;;;;;;;;;;5024843;28;20175;-75
2022/01/22 14:02:13;;;;;;;19.70;11.93;;;;;;;;;;5014470;28;20205;-75
2022/01/22 14:04:59;;;;;;;16.87;11.00;;;;;;;;;;5029226;28;20179;-75
2022/01/22 14:07:27;;;;;;;16.70;11.03;;;;;;;;;;4997720;28;20546;-75
2022/01/22 14:10:15;;;;;;;18.30;11.70;;;;;;;;;;5013341;28;20203;-75
2022/01/22 14:12:42;;;;;;;18.03;11.60;;;;;;;;;;5001023;28;20190;-75
2022/01/22 14:15:11;;;;;;;19.73;12.03;;;;;;;;;;5013289;28;20198;-75
2022/01/22 14:17:53;;;;;;;15.77;10.87;;;;;;;;;;5029274;28;20222;-75
2022/01/22 14:20:22;;;;;;;17.40;10.10;;;;;;;;;;5015133;28;20183;-74
2022/01/22 14:22:52;;;;;;;16.33;11.20;;;;;;;;;;5014296;28;20242;-75
2022/01/22 14:25:17;;;;;;;29.80;16.07;;;;;;;;;;5012291;28;20193;-75
2022/01/22 14:27:42;;;;;;;37.03;19.17;;;;;;;;;;5032923;28;20170;-75
2022/01/22 14:30:08;;;;;;;43.17;24.50;;;;;;;;;;5014651;28;20210;-75
2022/01/22 14:32:34;;;;;;;23.93;12.63;;;;;;;;;;5028977;28;20183;-75
2022/01/22 14:34:59;;;;;;;21.47;12.83;;;;;;;;;;5027180;28;20289;-75
2022/01/22 14:37:27;;;;;;;18.07;10.87;;;;;;;;;;5011388;28;20293;-75
2022/01/22 14:45:27;;;;;;;16.53;7.57;;;;;;;;;;5015966;28;20197;-76
2022/01/22 14:47:54;;;;;;;19.20;10.87;;;;;;;;;;5011922;28;20186;-75
2022/01/22 14:50:20;;;;;;;21.53;11.43;;;;;;;;;;5014914;28;20270;-76
2022/01/22 14:52:47;;;;;;;19.93;11.07;;;;;;;;;;5015336;28;20269;-75
2022/01/22 14:55:13;;;;;;;33.87;13.67;;;;;;;;;;5035764;28;20214;-75
2022/01/22 14:57:41;;;;;;;28.60;11.37;;;;;;;;;;5013186;28;20186;-75
2022/01/22 15:00:11;;;;;;;33.20;10.87;;;;;;;;;;5013114;28;20178;-75
2022/01/22 15:02:37;;;;;;;26.83;11.80;;;;;;;;;;5016199;28;20185;-75
2022/01/22 15:05:03;;;;;;;29.40;11.70;;;;;;;;;;5018145;28;20260;-75
2022/01/22 15:07:29;;;;;;;26.50;14.03;;;;;;;;;;5012915;28;20167;-75
2022/01/22 15:09:55;;;;;;;34.50;13.20;;;;;;;;;;5031016;28;20183;-75
2022/01/22 15:12:20;;;;;;;21.37;9.33;;;;;;;;;;5010920;28;20240;-75
2022/01/22 15:14:47;;;;;;;34.23;14.27;;;;;;;;;;5014891;28;20178;-75
2022/01/22 15:19:43;;;;;;;34.17;11.60;;;;;;;;;;5023965;28;20179;-75
2022/01/22 15:22:09;;;;;;;35.37;12.77;;;;;;;;;;5023356;28;20179;-75
2022/01/22 15:24:34;;;;;;;35.00;13.73;;;;;;;;;;5015277;28;20174;-75
2022/01/22 15:27:00;;;;;;;38.87;12.73;;;;;;;;;;5009210;28;20179;-75
2022/01/22 15:29:28;;;;;;;45.23;13.70;;;;;;;;;;5013937;28;20210;-75
2022/01/22 15:36:56;;;;;;;39.50;15.40;;;;;;;;;;5031425;28;20218;-75
2022/01/22 15:39:21;;;;;;;45.20;13.47;;;;;;;;;;5015241;28;20189;-75
2022/01/22 15:41:47;;;;;;;77.50;16.17;;;;;;;;;;5035294;28;20170;-75
2022/01/22 15:44:12;;;;;;;40.27;15.33;;;;;;;;;;5008255;28;22086;-75
2022/01/22 15:46:39;;;;;;;32.80;13.63;;;;;;;;;;5008689;28;20202;-75
2022/01/22 15:49:05;;;;;;;37.77;14.00;;;;;;;;;;5011386;28;20174;-75
2022/01/22 15:51:30;;;;;;;53.30;14.17;;;;;;;;;;5010411;28;20193;-75
2022/01/22 15:53:55;;;;;;;38.20;14.47;;;;;;;;;;5011044;28;20179;-75
2022/01/22 15:56:20;;;;;;;35.83;12.60;;;;;;;;;;5027191;28;20198;-75
2022/01/22 15:58:46;;;;;;;33.53;14.20;;;;;;;;;;5013384;28;20265;-75
2022/01/22 16:01:13;;;;;;;32.87;13.20;;;;;;;;;;5037618;28;20178;-76
2022/01/22 16:03:42;;;;;;;34.10;12.57;;;;;;;;;;5011376;28;20178;-75
2022/01/22 16:06:18;;;;;;;66.40;15.77;;;;;;;;;;5026455;28;20283;-75
2022/01/22 16:08:43;;;;;;;41.83;13.87;;;;;;;;;;5026221;28;20179;-75
2022/01/22 16:11:08;;;;;;;28.03;14.87;;;;;;;;;;5011316;28;20190;-75
2022/01/22 16:13:34;;;;;;;29.40;13.60;;;;;;;;;;5032001;28;20182;-76
2022/01/22 16:16:01;;;;;;;35.90;15.57;;;;;;;;;;5037308;28;20263;-75